createdAt,value
2019-03-17T00:00:46.147Z,0.00
2019-03-17T00:01:57.167Z,0.00
2019-03-17T00:02:47.129Z,0.00
2019-03-17T00:03:46.102Z,0.00
2019-03-17T00:04:46.089Z,0.00
2019-03-17T00:05:46.075Z,0.00
2019-03-17T00:06:46.067Z,0.00
2019-03-17T00:07:46.074Z,0.00
2019-03-17T00:08:46.045Z,0.00
2019-03-17T00:09:46.034Z,0.00
2019-03-17T00:10:46.026Z,0.00
2019-03-17T00:11:46.014Z,0.00
2019-03-17T00:12:46.024Z,0.00
2019-03-17T00:13:45.992Z,0.00
2019-03-17T00:14:46.943Z,0.00
2019-03-17T00:15:45.964Z,0.00
2019-03-17T00:16:45.956Z,0.00
2019-03-17T00:17:45.983Z,0.00
2019-03-17T00:18:45.933Z,0.00
2019-03-17T00:19:45.923Z,0.00
2019-03-17T00:20:45.911Z,0.00
2019-03-17T00:21:45.900Z,0.00
2019-03-17T00:22:45.894Z,0.00
2019-03-17T00:23:45.895Z,0.00
2019-03-17T00:24:45.862Z,0.00
2019-03-17T00:25:45.854Z,0.00
2019-03-17T00:26:45.843Z,0.00
2019-03-17T00:27:45.831Z,0.00
2019-03-17T00:28:45.861Z,0.00
2019-03-17T00:29:45.810Z,0.00
2019-03-17T00:30:45.804Z,0.00
2019-03-17T00:31:45.787Z,0.00
2019-03-17T00:32:45.770Z,0.00
2019-03-17T00:33:45.813Z,0.00
2019-03-17T00:34:45.755Z,0.00
2019-03-17T00:35:45.736Z,0.00
2019-03-17T00:36:45.731Z,0.00
2019-03-17T00:37:45.723Z,0.00
2019-03-17T00:38:45.727Z,0.00
2019-03-17T00:39:45.693Z,0.00
2019-03-17T00:40:45.684Z,0.00
2019-03-17T00:41:45.675Z,0.00
2019-03-17T00:42:45.661Z,0.00
2019-03-17T00:43:45.673Z,0.00
2019-03-17T00:44:45.640Z,0.00
2019-03-17T00:45:45.627Z,0.00
2019-03-17T00:46:45.620Z,0.00
2019-03-17T00:47:45.608Z,0.00
2019-03-17T00:48:45.615Z,0.00
2019-03-17T00:49:45.582Z,0.00
2019-03-17T00:50:45.567Z,0.00
2019-03-17T00:51:45.561Z,0.00
2019-03-17T00:52:45.545Z,0.00
2019-03-17T00:53:45.552Z,0.00
2019-03-17T00:54:45.532Z,0.00
2019-03-17T00:55:45.512Z,0.00
2019-03-17T00:56:45.507Z,0.00
2019-03-17T00:57:45.491Z,0.00
2019-03-17T00:58:45.500Z,0.00
2019-03-17T00:59:45.473Z,0.00
2019-03-17T01:00:45.460Z,0.00
2019-03-17T01:01:45.451Z,0.00
2019-03-17T01:02:45.440Z,0.00
2019-03-17T01:03:45.451Z,0.00
2019-03-17T01:04:55.740Z,0.00
2019-03-17T01:05:46.401Z,0.00
2019-03-17T01:06:45.392Z,0.00
2019-03-17T01:07:45.375Z,0.00
2019-03-17T01:08:45.378Z,0.00
2019-03-17T01:09:45.384Z,0.00
2019-03-17T01:10:45.357Z,0.00
2019-03-17T01:11:45.347Z,0.00
2019-03-17T01:12:45.333Z,0.00
2019-03-17T01:13:45.321Z,0.00
2019-03-17T01:14:45.323Z,0.00
2019-03-17T01:15:45.288Z,0.00
2019-03-17T01:16:45.279Z,0.00
2019-03-17T01:17:45.265Z,0.00
2019-03-17T01:18:45.253Z,0.00
2019-03-17T01:19:45.304Z,0.00
2019-03-17T01:20:45.239Z,0.00
2019-03-17T01:21:45.227Z,0.00
2019-03-17T01:22:45.215Z,0.00
2019-03-17T01:23:45.204Z,0.00
2019-03-17T01:24:45.213Z,0.00
2019-03-17T01:25:45.182Z,0.00
2019-03-17T01:26:45.169Z,0.00
2019-03-17T01:27:45.154Z,0.00
2019-03-17T01:28:45.148Z,0.00
2019-03-17T01:29:45.154Z,0.00
2019-03-17T01:30:45.125Z,0.00
2019-03-17T01:31:45.109Z,0.00
2019-03-17T01:32:45.097Z,0.00
2019-03-17T01:33:45.089Z,0.00
2019-03-17T01:34:45.092Z,0.00
2019-03-17T01:35:45.066Z,0.00
2019-03-17T01:36:45.056Z,0.00
2019-03-17T01:37:45.044Z,0.00
2019-03-17T01:38:45.031Z,0.00
2019-03-17T01:39:45.041Z,0.00
2019-03-17T01:40:45.009Z,0.00
2019-03-17T01:41:45.025Z,0.00
2019-03-17T01:42:44.991Z,0.00
2019-03-17T01:43:44.975Z,0.00
2019-03-17T01:44:44.985Z,0.00
2019-03-17T01:45:44.955Z,0.00
2019-03-17T01:46:44.942Z,0.00
2019-03-17T01:47:44.930Z,0.00
2019-03-17T01:48:44.916Z,0.00
2019-03-17T01:49:44.931Z,0.00
2019-03-17T01:50:44.893Z,0.00
2019-03-17T01:51:44.884Z,0.00
2019-03-17T01:52:44.876Z,0.00
2019-03-17T01:53:44.869Z,0.00
2019-03-17T01:54:44.882Z,0.00
2019-03-17T01:55:44.845Z,0.00
2019-03-17T01:56:44.827Z,0.00
2019-03-17T01:57:44.821Z,0.00
2019-03-17T01:58:44.809Z,0.00
2019-03-17T01:59:44.891Z,0.00
2019-03-17T02:00:44.801Z,0.00
2019-03-17T02:01:44.790Z,0.00
2019-03-17T02:02:44.782Z,0.00
2019-03-17T02:03:44.759Z,0.00
2019-03-17T02:04:44.744Z,0.00
2019-03-17T02:05:44.755Z,0.00
2019-03-17T02:06:44.721Z,0.00
2019-03-17T02:07:44.713Z,0.00
2019-03-17T02:08:44.701Z,0.00
2019-03-17T02:09:44.699Z,0.00
2019-03-17T02:10:44.693Z,0.00
2019-03-17T02:11:44.674Z,0.00
2019-03-17T02:12:44.679Z,0.00
2019-03-17T02:13:44.637Z,0.00
2019-03-17T02:14:44.625Z,0.00
2019-03-17T02:15:44.638Z,0.00
2019-03-17T02:16:44.613Z,0.00
2019-03-17T02:17:44.614Z,0.00
2019-03-17T02:18:44.601Z,0.00
2019-03-17T02:19:44.575Z,0.00
2019-03-17T02:20:44.591Z,0.00
2019-03-17T02:21:44.549Z,0.00
2019-03-17T02:22:44.567Z,0.00
2019-03-17T02:23:44.533Z,0.00
2019-03-17T02:24:44.520Z,0.00
2019-03-17T02:25:44.593Z,0.00
2019-03-17T02:26:44.499Z,0.00
2019-03-17T02:27:44.488Z,0.00
2019-03-17T02:28:44.485Z,0.00
2019-03-17T02:29:44.486Z,0.00
2019-03-17T02:30:44.507Z,0.00
2019-03-17T02:31:44.433Z,0.00
2019-03-17T02:32:44.422Z,0.00
2019-03-17T02:33:44.423Z,0.00
2019-03-17T02:34:44.423Z,0.00
2019-03-17T02:35:44.420Z,0.00
2019-03-17T02:36:44.383Z,0.00
2019-03-17T02:37:44.378Z,0.00
2019-03-17T02:38:44.354Z,0.00
2019-03-17T02:39:44.364Z,0.00
2019-03-17T02:40:44.359Z,0.00
2019-03-17T02:41:44.327Z,0.00
2019-03-17T02:42:44.316Z,0.00
2019-03-17T02:43:44.320Z,0.00
2019-03-17T02:44:44.298Z,0.00
2019-03-17T02:45:44.300Z,0.00
2019-03-17T02:46:44.267Z,0.00
2019-03-17T02:47:44.256Z,0.00
2019-03-17T02:48:44.254Z,0.00
2019-03-17T02:49:44.235Z,0.00
2019-03-17T02:50:44.244Z,0.00
2019-03-17T02:51:44.247Z,0.00
2019-03-17T02:52:44.202Z,0.00
2019-03-17T02:53:44.195Z,0.00
2019-03-17T02:54:44.174Z,0.00
2019-03-17T02:55:44.224Z,0.00
2019-03-17T02:56:44.161Z,0.00
2019-03-17T02:57:44.158Z,0.00
2019-03-17T02:58:44.141Z,0.00
2019-03-17T02:59:44.121Z,0.00
2019-03-17T03:00:44.127Z,0.00
2019-03-17T03:01:44.220Z,0.00
2019-03-17T03:02:44.098Z,0.00
2019-03-17T03:03:44.071Z,0.00
2019-03-17T03:04:44.057Z,0.00
2019-03-17T03:05:54.765Z,0.00
2019-03-17T03:06:45.071Z,0.00
2019-03-17T03:07:44.036Z,0.00
2019-03-17T03:08:44.025Z,0.00
2019-03-17T03:09:44.005Z,0.00
2019-03-17T03:10:44.018Z,0.00
2019-03-17T03:12:45.007Z,0.00
2019-03-17T03:13:43.972Z,0.00
2019-03-17T03:14:43.990Z,0.00
2019-03-17T03:15:43.961Z,0.00
2019-03-17T03:16:43.925Z,0.00
2019-03-17T03:17:43.923Z,0.00
2019-03-17T03:18:43.914Z,0.00
2019-03-17T03:19:43.906Z,0.00
2019-03-17T03:20:43.918Z,0.00
2019-03-17T03:21:43.871Z,0.00
2019-03-17T03:22:43.860Z,0.00
2019-03-17T03:23:43.850Z,0.00
2019-03-17T03:24:43.848Z,0.00
2019-03-17T03:25:43.864Z,0.00
2019-03-17T03:26:43.831Z,0.00
2019-03-17T03:27:43.812Z,0.00
2019-03-17T03:28:43.808Z,0.00
2019-03-17T03:29:43.792Z,0.00
2019-03-17T03:30:43.779Z,0.00
2019-03-17T03:31:43.794Z,0.00
2019-03-17T03:32:43.767Z,0.00
2019-03-17T03:33:43.789Z,0.00
2019-03-17T03:34:43.779Z,0.00
2019-03-17T03:35:43.732Z,0.00
2019-03-17T03:36:43.719Z,0.00
2019-03-17T03:37:43.687Z,0.00
2019-03-17T03:38:43.680Z,0.00
2019-03-17T03:39:43.670Z,0.00
2019-03-17T03:40:43.660Z,0.00
2019-03-17T03:41:43.666Z,0.00
2019-03-17T03:42:43.661Z,0.00
2019-03-17T03:43:43.620Z,0.00
2019-03-17T03:44:43.618Z,0.00
2019-03-17T03:45:43.604Z,0.00
2019-03-17T03:46:43.630Z,0.00
2019-03-17T03:47:43.590Z,0.00
2019-03-17T03:48:43.569Z,0.00
2019-03-17T03:49:43.668Z,0.00
2019-03-17T03:50:43.541Z,0.00
2019-03-17T03:51:43.557Z,0.00
2019-03-17T03:52:43.559Z,0.00
2019-03-17T03:53:43.514Z,0.00
2019-03-17T03:54:43.495Z,0.00
2019-03-17T03:55:43.499Z,0.00
2019-03-17T03:56:43.492Z,0.00
2019-03-17T03:57:43.478Z,0.00
2019-03-17T03:58:43.456Z,0.00
2019-03-17T03:59:43.449Z,0.00
2019-03-17T04:00:43.431Z,0.00
2019-03-17T04:01:43.433Z,0.00
2019-03-17T04:02:43.408Z,0.00
2019-03-17T04:03:43.397Z,0.00
2019-03-17T04:04:43.379Z,0.00
2019-03-17T04:05:43.395Z,0.00
2019-03-17T04:06:43.415Z,0.00
2019-03-17T04:07:43.368Z,0.00
2019-03-17T04:08:43.361Z,0.00
2019-03-17T04:09:43.328Z,0.00
2019-03-17T04:10:43.315Z,0.00
2019-03-17T04:11:43.341Z,0.00
2019-03-17T04:12:43.298Z,0.00
2019-03-17T04:13:43.295Z,0.00
2019-03-17T04:14:43.297Z,0.00
2019-03-17T04:15:43.271Z,0.00
2019-03-17T04:16:43.263Z,0.00
2019-03-17T04:17:43.292Z,0.00
2019-03-17T04:18:43.231Z,0.00
2019-03-17T04:19:43.211Z,0.00
2019-03-17T04:20:43.223Z,0.00
2019-03-17T04:21:43.207Z,0.00
2019-03-17T04:22:43.205Z,0.00
2019-03-17T04:23:43.168Z,0.00
2019-03-17T04:24:43.164Z,0.00
2019-03-17T04:25:43.149Z,0.00
2019-03-17T04:26:43.135Z,0.00
2019-03-17T04:27:43.148Z,0.00
2019-03-17T04:28:43.114Z,0.00
2019-03-17T04:29:43.105Z,0.00
2019-03-17T04:30:43.094Z,0.00
2019-03-17T04:31:43.101Z,0.00
2019-03-17T04:32:43.103Z,0.00
2019-03-17T04:33:43.076Z,0.00
2019-03-17T04:34:43.050Z,0.00
2019-03-17T04:35:43.033Z,0.00
2019-03-17T04:36:43.027Z,0.00
2019-03-17T04:37:43.034Z,0.00
2019-03-17T04:38:43.956Z,0.00
2019-03-17T04:39:42.997Z,0.00
2019-03-17T04:40:42.978Z,0.00
2019-03-17T04:41:42.975Z,0.00
2019-03-17T04:42:42.989Z,0.00
2019-03-17T04:43:42.949Z,0.00
2019-03-17T04:44:42.937Z,0.00
2019-03-17T04:45:42.921Z,0.00
2019-03-17T04:46:42.914Z,0.00
2019-03-17T04:47:42.950Z,0.00
2019-03-17T04:48:42.946Z,0.00
2019-03-17T04:49:42.882Z,4.00
2019-03-17T04:50:42.875Z,4.00
2019-03-17T04:51:42.847Z,0.00
2019-03-17T04:52:42.855Z,4.00
2019-03-17T04:53:42.842Z,8.00
2019-03-17T04:54:42.837Z,4.00
2019-03-17T04:55:42.817Z,8.00
2019-03-17T04:56:42.792Z,8.00
2019-03-17T04:57:42.813Z,8.00
2019-03-17T04:58:42.779Z,12.00
2019-03-17T04:59:42.780Z,12.00
2019-03-17T05:00:42.753Z,16.00
2019-03-17T05:01:42.757Z,16.00
2019-03-17T05:02:42.767Z,20.00
2019-03-17T05:03:42.729Z,24.00
2019-03-17T05:04:42.715Z,24.00
2019-03-17T05:05:42.723Z,28.00
2019-03-17T05:06:52.144Z,36.00
2019-03-17T05:07:43.722Z,44.00
2019-03-17T05:08:42.671Z,52.00
2019-03-17T05:09:42.669Z,52.00
2019-03-17T05:10:42.651Z,56.00
2019-03-17T05:11:42.657Z,64.00
2019-03-17T05:12:42.637Z,64.00
2019-03-17T05:13:42.669Z,68.00
2019-03-17T05:14:42.599Z,76.00
2019-03-17T05:15:42.609Z,80.00
2019-03-17T05:16:42.595Z,92.00
2019-03-17T05:17:42.571Z,96.00
2019-03-17T05:18:42.598Z,104.00
2019-03-17T05:19:42.629Z,112.00
2019-03-17T05:20:42.529Z,120.00
2019-03-17T05:21:42.527Z,128.00
2019-03-17T05:22:42.523Z,140.00
2019-03-17T05:23:42.513Z,160.00
2019-03-17T05:24:42.504Z,176.00
2019-03-17T05:25:42.482Z,192.00
2019-03-17T05:26:42.472Z,216.00
2019-03-17T05:27:42.465Z,232.00
2019-03-17T05:28:42.485Z,248.00
2019-03-17T05:29:42.437Z,272.00
2019-03-17T05:30:42.432Z,292.00
2019-03-17T05:31:42.397Z,284.00
2019-03-17T05:32:42.389Z,264.00
2019-03-17T05:33:42.405Z,248.00
2019-03-17T05:34:42.369Z,252.00
2019-03-17T05:35:42.359Z,268.00
2019-03-17T05:36:42.352Z,300.00
2019-03-17T05:37:42.330Z,332.00
2019-03-17T05:38:42.335Z,348.00
2019-03-17T05:39:42.308Z,344.00
2019-03-17T05:40:42.310Z,352.00
2019-03-17T05:41:42.287Z,348.00
2019-03-17T05:42:42.298Z,336.00
2019-03-17T05:43:42.331Z,360.00
2019-03-17T05:44:42.253Z,340.00
2019-03-17T05:45:42.250Z,336.00
2019-03-17T05:46:42.230Z,320.00
2019-03-17T05:47:42.248Z,336.00
2019-03-17T05:48:42.249Z,348.00
2019-03-17T05:49:42.213Z,360.00
2019-03-17T05:50:42.192Z,360.00
2019-03-17T05:51:42.179Z,380.00
2019-03-17T05:52:42.187Z,412.00
2019-03-17T05:53:42.197Z,424.00
2019-03-17T05:54:42.149Z,416.00
2019-03-17T05:55:42.144Z,460.00
2019-03-17T05:56:42.124Z,480.00
2019-03-17T05:57:42.124Z,528.00
2019-03-17T05:58:42.135Z,580.00
2019-03-17T05:59:42.080Z,660.00
2019-03-17T06:00:42.075Z,712.00
2019-03-17T06:01:42.061Z,740.00
2019-03-17T06:02:42.083Z,748.00
2019-03-17T06:03:42.055Z,788.00
2019-03-17T06:04:42.057Z,844.00
2019-03-17T06:05:42.019Z,992.00
2019-03-17T06:06:42.023Z,1052.00
2019-03-17T06:07:41.991Z,1092.00
2019-03-17T06:08:41.989Z,1136.00
2019-03-17T06:09:42.004Z,1136.00
2019-03-17T06:10:42.017Z,1192.00
2019-03-17T06:11:41.957Z,1208.00
2019-03-17T06:12:41.957Z,1264.00
2019-03-17T06:13:41.932Z,1280.00
2019-03-17T06:14:41.948Z,1280.00
2019-03-17T06:15:41.921Z,1268.00
2019-03-17T06:16:41.893Z,1324.00
2019-03-17T06:17:41.896Z,1380.00
2019-03-17T06:18:41.873Z,1480.00
2019-03-17T06:19:41.901Z,1640.00
2019-03-17T06:20:41.863Z,1776.00
2019-03-17T06:21:41.840Z,1852.00
2019-03-17T06:22:41.833Z,1916.00
2019-03-17T06:23:41.837Z,2004.00
2019-03-17T06:24:41.832Z,2104.00
2019-03-17T06:25:41.802Z,2256.00
2019-03-17T06:26:41.812Z,2428.00
2019-03-17T06:27:41.770Z,2588.00
2019-03-17T06:28:41.788Z,2652.00
2019-03-17T06:29:41.776Z,2716.00
2019-03-17T06:30:41.730Z,2732.00
2019-03-17T06:31:41.731Z,2760.00
2019-03-17T06:32:41.723Z,2784.00
2019-03-17T06:33:41.710Z,2772.00
2019-03-17T06:34:41.714Z,2788.00
2019-03-17T06:35:41.689Z,2756.00
2019-03-17T06:36:41.674Z,2768.00
2019-03-17T06:37:41.695Z,2768.00
2019-03-17T06:38:41.644Z,2708.00
2019-03-17T06:39:41.669Z,2564.00
2019-03-17T06:40:41.649Z,2440.00
2019-03-17T06:41:41.615Z,2208.00
2019-03-17T06:42:41.610Z,2060.00
2019-03-17T06:43:41.603Z,1932.00
2019-03-17T06:44:41.676Z,1872.00
2019-03-17T06:45:41.583Z,1800.00
2019-03-17T06:46:41.593Z,1692.00
2019-03-17T06:47:41.543Z,1652.00
2019-03-17T06:48:41.547Z,1684.00
2019-03-17T06:49:41.549Z,1724.00
2019-03-17T06:50:41.522Z,1720.00
2019-03-17T06:51:41.511Z,1740.00
2019-03-17T06:52:41.491Z,1880.00
2019-03-17T06:53:41.482Z,2012.00
2019-03-17T06:54:41.487Z,2072.00
2019-03-17T06:55:41.452Z,2144.00
2019-03-17T06:56:41.463Z,2216.00
2019-03-17T06:57:41.437Z,2336.00
2019-03-17T06:58:41.421Z,2328.00
2019-03-17T06:59:41.434Z,2576.00
2019-03-17T07:00:41.415Z,2720.00
2019-03-17T07:01:41.395Z,2912.00
2019-03-17T07:02:41.391Z,2952.00
2019-03-17T07:03:41.388Z,3092.00
2019-03-17T07:04:41.435Z,3232.00
2019-03-17T07:05:41.426Z,3236.00
2019-03-17T07:06:41.363Z,3196.00
2019-03-17T07:07:44.210Z,3044.00
2019-03-17T07:08:41.318Z,2676.00
2019-03-17T07:09:41.337Z,2560.00
2019-03-17T07:10:41.291Z,2600.00
2019-03-17T07:11:41.296Z,2776.00
2019-03-17T07:12:41.263Z,2952.00
2019-03-17T07:13:41.262Z,3272.00
2019-03-17T07:14:41.273Z,3832.00
2019-03-17T07:15:41.231Z,4032.00
2019-03-17T07:16:41.223Z,4360.00
2019-03-17T07:17:41.241Z,4668.00
2019-03-17T07:18:41.202Z,5104.00
2019-03-17T07:19:41.231Z,4624.00
2019-03-17T07:20:41.190Z,4164.00
2019-03-17T07:21:41.176Z,3804.00
2019-03-17T07:22:41.175Z,3408.00
2019-03-17T07:23:41.153Z,3296.00
2019-03-17T07:24:41.139Z,3404.00
2019-03-17T07:25:41.168Z,3424.00
2019-03-17T07:26:41.109Z,3440.00
2019-03-17T07:27:41.106Z,3308.00
2019-03-17T07:28:41.169Z,3492.00
2019-03-17T07:29:41.075Z,3664.00
2019-03-17T07:30:41.098Z,3740.00
2019-03-17T07:31:41.055Z,3856.00
2019-03-17T07:32:41.047Z,4028.00
2019-03-17T07:33:41.049Z,4228.00
2019-03-17T07:34:41.025Z,4236.00
2019-03-17T07:35:41.048Z,4408.00
2019-03-17T07:36:41.013Z,4636.00
2019-03-17T07:37:40.989Z,4880.00
2019-03-17T07:38:40.986Z,4696.00
2019-03-17T07:39:40.982Z,4576.00
2019-03-17T07:40:40.984Z,4612.00
2019-03-17T07:41:40.972Z,4600.00
2019-03-17T07:42:40.947Z,4552.00
2019-03-17T07:43:40.938Z,4012.00
2019-03-17T07:44:40.931Z,3600.00
2019-03-17T07:45:41.012Z,3612.00
2019-03-17T07:46:40.884Z,3488.00
2019-03-17T07:47:40.883Z,3656.00
2019-03-17T07:48:40.871Z,3520.00
2019-03-17T07:49:40.881Z,3464.00
2019-03-17T07:50:40.863Z,3140.00
2019-03-17T07:51:40.832Z,3520.00
2019-03-17T07:52:40.834Z,3804.00
2019-03-17T07:53:40.815Z,3724.00
2019-03-17T07:54:40.805Z,4360.00
2019-03-17T07:55:40.823Z,4912.00
2019-03-17T07:56:40.781Z,4808.00
2019-03-17T07:57:40.772Z,4816.00
2019-03-17T07:58:40.756Z,4560.00
2019-03-17T07:59:40.769Z,4484.00
2019-03-17T08:00:40.753Z,4484.00
2019-03-17T08:01:40.716Z,4148.00
2019-03-17T08:02:40.721Z,3844.00
2019-03-17T08:03:40.690Z,4532.00
2019-03-17T08:04:43.048Z,4480.00
2019-03-17T08:05:41.703Z,4560.00
2019-03-17T08:06:40.653Z,4724.00
2019-03-17T08:07:40.649Z,4724.00
2019-03-17T08:08:40.671Z,4760.00
2019-03-17T08:09:40.632Z,4820.00
2019-03-17T08:10:40.649Z,4800.00
2019-03-17T08:11:40.625Z,4724.00
2019-03-17T08:12:40.585Z,4680.00
2019-03-17T08:13:40.569Z,4704.00
2019-03-17T08:14:40.644Z,4764.00
2019-03-17T08:15:40.569Z,4784.00
2019-03-17T08:16:40.529Z,4868.00
2019-03-17T08:17:40.523Z,4912.00
2019-03-17T08:18:40.510Z,4960.00
2019-03-17T08:19:40.508Z,5080.00
2019-03-17T08:20:40.521Z,5212.00
2019-03-17T08:21:43.196Z,5428.00
2019-03-17T08:22:40.466Z,5672.00
2019-03-17T08:23:40.461Z,5780.00
2019-03-17T08:24:40.449Z,5728.00
2019-03-17T08:25:40.463Z,5628.00
2019-03-17T08:26:40.417Z,5452.00
2019-03-17T08:27:40.408Z,5336.00
2019-03-17T08:28:40.399Z,5088.00
2019-03-17T08:29:40.396Z,4904.00
2019-03-17T08:30:52.084Z,4856.00
2019-03-17T08:31:41.379Z,4596.00
2019-03-17T08:32:41.328Z,4448.00
2019-03-17T08:33:40.355Z,4564.00
2019-03-17T08:34:40.335Z,5084.00
2019-03-17T08:35:40.321Z,5380.00
2019-03-17T08:36:40.366Z,5716.00
2019-03-17T08:37:40.299Z,8376.00
2019-03-17T08:38:40.286Z,10516.00
2019-03-17T08:39:40.273Z,10820.00
2019-03-17T08:40:40.264Z,8136.00
2019-03-17T08:41:40.267Z,7600.00
2019-03-17T08:42:40.242Z,9880.00
2019-03-17T08:43:40.225Z,9200.00
2019-03-17T08:44:40.216Z,8528.00
2019-03-17T08:45:40.205Z,10864.00
2019-03-17T08:46:40.221Z,13472.00
2019-03-17T08:47:40.183Z,11752.00
2019-03-17T08:48:40.168Z,9664.00
2019-03-17T08:49:40.161Z,8532.00
2019-03-17T08:50:40.161Z,8916.00
2019-03-17T08:51:40.163Z,9024.00
2019-03-17T08:52:40.140Z,10920.00
2019-03-17T08:53:40.113Z,13408.00
2019-03-17T08:54:40.100Z,14096.00
2019-03-17T08:55:40.092Z,11676.00
2019-03-17T08:56:40.099Z,11020.00
2019-03-17T08:57:40.077Z,10356.00
2019-03-17T08:58:40.059Z,8796.00
2019-03-17T08:59:40.046Z,11400.00
2019-03-17T09:00:40.031Z,13668.00
2019-03-17T09:01:40.042Z,14000.00
2019-03-17T09:02:40.011Z,14416.00
2019-03-17T09:03:40.008Z,13756.00
2019-03-17T09:04:40.011Z,11304.00
2019-03-17T09:05:39.996Z,10948.00
2019-03-17T09:06:39.986Z,11776.00
2019-03-17T09:07:39.957Z,13244.00
2019-03-17T09:08:39.947Z,13200.00
2019-03-17T09:09:39.951Z,13024.00
2019-03-17T09:10:39.923Z,13300.00
2019-03-17T09:11:39.926Z,14124.00
2019-03-17T09:12:39.900Z,13260.00
2019-03-17T09:13:39.895Z,13036.00
2019-03-17T09:14:39.880Z,13032.00
2019-03-17T09:15:39.864Z,11996.00
2019-03-17T09:16:39.872Z,12740.00
2019-03-17T09:17:39.849Z,15580.00
2019-03-17T09:18:39.828Z,13452.00
2019-03-17T09:19:39.820Z,8684.00
2019-03-17T09:20:39.815Z,7132.00
2019-03-17T09:21:39.823Z,6352.00
2019-03-17T09:22:39.785Z,8604.00
2019-03-17T09:23:42.560Z,11944.00
2019-03-17T09:24:39.769Z,14156.00
2019-03-17T09:25:39.751Z,13004.00
2019-03-17T09:26:39.771Z,10016.00
2019-03-17T09:27:39.758Z,7112.00
2019-03-17T09:28:39.725Z,6180.00
2019-03-17T09:29:39.702Z,11048.00
2019-03-17T09:30:39.695Z,14644.00
2019-03-17T09:31:39.685Z,9680.00
2019-03-17T09:32:39.692Z,9556.00
2019-03-17T09:33:39.658Z,8320.00
2019-03-17T09:34:39.651Z,6448.00
2019-03-17T09:35:39.634Z,8164.00
2019-03-17T09:36:39.638Z,13880.00
2019-03-17T09:37:39.637Z,12628.00
2019-03-17T09:38:47.287Z,11716.00
2019-03-17T09:39:40.589Z,8228.00
2019-03-17T09:40:39.578Z,9208.00
2019-03-17T09:41:39.567Z,7036.00
2019-03-17T09:42:39.572Z,7840.00
2019-03-17T09:43:39.546Z,12720.00
2019-03-17T09:44:39.543Z,8140.00
2019-03-17T09:45:39.533Z,6416.00
2019-03-17T09:46:39.512Z,6332.00
2019-03-17T09:47:41.132Z,5244.00
2019-03-17T09:48:39.497Z,9716.00
2019-03-17T09:49:39.494Z,16068.00
2019-03-17T09:50:39.469Z,14124.00
2019-03-17T09:51:39.458Z,10880.00
2019-03-17T09:52:39.465Z,10848.00
2019-03-17T09:53:39.436Z,8396.00
2019-03-17T09:54:39.423Z,10512.00
2019-03-17T09:55:39.413Z,13224.00
2019-03-17T09:56:39.400Z,12004.00
2019-03-17T09:57:39.419Z,11192.00
2019-03-17T09:58:39.380Z,9124.00
2019-03-17T09:59:39.363Z,9520.00
2019-03-17T10:00:39.355Z,13860.00
2019-03-17T10:01:39.343Z,15544.00
2019-03-17T10:02:39.347Z,18176.00
2019-03-17T10:03:39.328Z,20320.00
2019-03-17T10:04:39.314Z,7556.00
2019-03-17T10:05:39.292Z,7440.00
2019-03-17T10:06:39.291Z,8300.00
2019-03-17T10:07:39.294Z,7792.00
2019-03-17T10:08:39.267Z,6812.00
2019-03-17T10:09:39.252Z,9036.00
2019-03-17T10:10:39.237Z,11356.00
2019-03-17T10:11:39.237Z,12984.00
2019-03-17T10:12:39.236Z,23008.00
2019-03-17T10:13:39.207Z,17568.00
2019-03-17T10:14:39.195Z,19488.00
2019-03-17T10:15:39.199Z,13608.00
2019-03-17T10:16:39.179Z,5580.00
2019-03-17T10:17:39.182Z,7012.00
2019-03-17T10:18:39.150Z,5920.00
2019-03-17T10:19:39.138Z,6660.00
2019-03-17T10:20:39.129Z,9384.00
2019-03-17T10:21:39.119Z,15108.00
2019-03-17T10:22:39.904Z,12204.00
2019-03-17T10:23:39.089Z,13004.00
2019-03-17T10:24:39.085Z,12532.00
2019-03-17T10:25:39.073Z,16216.00
2019-03-17T10:26:39.057Z,16888.00
2019-03-17T10:27:39.066Z,7892.00
2019-03-17T10:28:39.046Z,6376.00
2019-03-17T10:29:39.019Z,6720.00
2019-03-17T10:30:39.017Z,7240.00
2019-03-17T10:31:38.999Z,6656.00
2019-03-17T10:32:39.007Z,9952.00
2019-03-17T10:33:38.975Z,11324.00
2019-03-17T10:34:38.967Z,7784.00
2019-03-17T10:35:38.957Z,5944.00
2019-03-17T10:36:38.943Z,5628.00
2019-03-17T10:37:38.955Z,6948.00
2019-03-17T10:38:38.932Z,6520.00
2019-03-17T10:39:38.906Z,5876.00
2019-03-17T10:40:38.899Z,7080.00
2019-03-17T10:41:38.888Z,5356.00
2019-03-17T10:42:38.896Z,5128.00
2019-03-17T10:43:38.866Z,5240.00
2019-03-17T10:44:38.856Z,5748.00
2019-03-17T10:45:38.853Z,5440.00
2019-03-17T10:46:38.838Z,5656.00
2019-03-17T10:47:38.836Z,8340.00
2019-03-17T10:48:38.813Z,10612.00
2019-03-17T10:49:38.807Z,11952.00
2019-03-17T10:50:48.933Z,10600.00
2019-03-17T10:51:39.777Z,8904.00
2019-03-17T10:52:38.789Z,8968.00
2019-03-17T10:53:38.761Z,8800.00
2019-03-17T10:54:38.760Z,7208.00
2019-03-17T10:55:38.730Z,7580.00
2019-03-17T10:56:38.725Z,7968.00
2019-03-17T10:57:38.704Z,7892.00
2019-03-17T10:58:38.726Z,6836.00
2019-03-17T10:59:38.688Z,7384.00
2019-03-17T11:00:38.697Z,8492.00
2019-03-17T11:01:38.665Z,9568.00
2019-03-17T11:02:38.657Z,12220.00
2019-03-17T11:03:38.669Z,11480.00
2019-03-17T11:04:38.641Z,10452.00
2019-03-17T11:05:38.623Z,11504.00
2019-03-17T11:06:38.604Z,10440.00
2019-03-17T11:07:38.590Z,11700.00
2019-03-17T11:08:38.606Z,13412.00
2019-03-17T11:09:38.577Z,14500.00
2019-03-17T11:10:38.567Z,11112.00
2019-03-17T11:11:38.552Z,10316.00
2019-03-17T11:12:38.535Z,13464.00
2019-03-17T11:13:38.545Z,13732.00
2019-03-17T11:14:38.523Z,11516.00
2019-03-17T11:15:38.512Z,13604.00
2019-03-17T11:16:38.502Z,14352.00
2019-03-17T11:17:38.478Z,11568.00
2019-03-17T11:18:38.489Z,10324.00
2019-03-17T11:19:38.464Z,8488.00
2019-03-17T11:20:38.444Z,8032.00
2019-03-17T11:21:38.431Z,6548.00
2019-03-17T11:22:38.500Z,6392.00
2019-03-17T11:23:38.431Z,6200.00
2019-03-17T11:24:38.403Z,6700.00
2019-03-17T11:25:38.403Z,7268.00
2019-03-17T11:26:38.383Z,7424.00
2019-03-17T11:27:38.375Z,7516.00
2019-03-17T11:28:38.668Z,7008.00
2019-03-17T11:29:38.365Z,6228.00
2019-03-17T11:30:38.341Z,5476.00
2019-03-17T11:31:38.321Z,5152.00
2019-03-17T11:32:38.324Z,8148.00
2019-03-17T11:33:38.322Z,7524.00
2019-03-17T11:34:38.325Z,6532.00
2019-03-17T11:35:38.277Z,6444.00
2019-03-17T11:36:38.272Z,7816.00
2019-03-17T11:37:38.256Z,6660.00
2019-03-17T11:38:38.260Z,7712.00
2019-03-17T11:39:38.354Z,7836.00
2019-03-17T11:40:38.225Z,7724.00
2019-03-17T11:41:38.215Z,8420.00
2019-03-17T11:42:38.196Z,6740.00
2019-03-17T11:43:38.201Z,7784.00
2019-03-17T11:44:38.172Z,7736.00
2019-03-17T11:45:38.165Z,7332.00
2019-03-17T11:46:38.161Z,7268.00
2019-03-17T11:47:38.143Z,6112.00
2019-03-17T11:48:38.162Z,5524.00
2019-03-17T11:49:38.115Z,5812.00
2019-03-17T11:50:38.107Z,3504.00
2019-03-17T11:51:38.126Z,3900.00
2019-03-17T11:52:38.083Z,4112.00
2019-03-17T11:53:38.087Z,3748.00
2019-03-17T11:54:38.102Z,3540.00
2019-03-17T11:55:38.051Z,3680.00
2019-03-17T11:56:38.067Z,4276.00
2019-03-17T11:57:38.031Z,4072.00
2019-03-17T11:58:38.020Z,3052.00
2019-03-17T11:59:38.024Z,3772.00
2019-03-17T12:00:38.026Z,3388.00
2019-03-17T12:01:37.981Z,3552.00
2019-03-17T12:02:37.982Z,2528.00
2019-03-17T12:03:37.961Z,2464.00
2019-03-17T12:04:37.967Z,2692.00
2019-03-17T12:05:37.937Z,3392.00
2019-03-17T12:06:37.926Z,3396.00
2019-03-17T12:07:37.916Z,3424.00
2019-03-17T12:08:37.916Z,2780.00
2019-03-17T12:09:49.285Z,2344.00
2019-03-17T12:10:38.886Z,2872.00
2019-03-17T12:11:37.866Z,4040.00
2019-03-17T12:12:37.857Z,3500.00
2019-03-17T12:13:37.848Z,4860.00
2019-03-17T12:14:37.859Z,7468.00
2019-03-17T12:15:37.832Z,6724.00
2019-03-17T12:16:37.837Z,6208.00
2019-03-17T12:17:37.802Z,4284.00
2019-03-17T12:18:37.804Z,4208.00
2019-03-17T12:19:37.803Z,3688.00
2019-03-17T12:20:37.771Z,3016.00
2019-03-17T12:21:37.761Z,3628.00
2019-03-17T12:22:37.755Z,3460.00
2019-03-17T12:23:37.741Z,3248.00
2019-03-17T12:24:37.744Z,3004.00
2019-03-17T12:25:37.726Z,2468.00
2019-03-17T12:26:37.705Z,2748.00
2019-03-17T12:27:37.705Z,3360.00
2019-03-17T12:28:37.679Z,2676.00
2019-03-17T12:29:37.693Z,1944.00
2019-03-17T12:30:37.657Z,2868.00
2019-03-17T12:31:37.655Z,2772.00
2019-03-17T12:32:37.639Z,2076.00
2019-03-17T12:33:37.632Z,2332.00